Terminal Aerodrome Forecast
Issued by NWS North Platte, NE

Home | Current Version | Previous Version | Text Only | Print | Product List | Glossary On
Versions: 1 2 3 4 5 6 7 8 9 10 11 12 13 14
000
FTUS43 KLBF 221513 AAA
TAFLBF
TAF AMD
KLBF 221513Z 2215/2312 19015G25KT P6SM FEW250
     FM221800 15016G22KT P6SM SCT200
     FM230200 14017KT P6SM BKN200 WS020/18040KT
     FM230800 11013KT P6SM BKN200 WS020/19035KT=

USA.gov is the U.S. government's official web portal to all federal, state and local government web resources and services.